createdAt,value
2023-04-10T00:00:57.414Z,99.90
2023-04-10T00:03:27.118Z,99.90
2023-04-10T00:05:55.730Z,99.90
2023-04-10T00:08:25.031Z,99.90
2023-04-10T00:10:54.702Z,99.90
2023-04-10T00:13:24.544Z,99.90
2023-04-10T00:15:53.184Z,99.90
2023-04-10T00:18:21.694Z,99.90
2023-04-10T00:20:50.179Z,99.90
2023-04-10T00:23:18.675Z,99.90
2023-04-10T00:25:49.295Z,99.90
2023-04-10T00:28:17.786Z,99.90
2023-04-10T00:30:47.614Z,99.90
2023-04-10T00:33:16.122Z,99.90
2023-04-10T00:35:44.600Z,99.90
2023-04-10T00:38:13.215Z,99.90
2023-04-10T00:40:42.186Z,99.90
2023-04-10T00:43:10.684Z,99.90
2023-04-10T00:45:39.926Z,99.90
2023-04-10T00:48:09.788Z,99.90
2023-04-10T00:50:38.273Z,99.90
2023-04-10T00:53:07.248Z,99.90
2023-04-10T00:55:35.740Z,99.90
2023-04-10T00:58:04.598Z,99.90
2023-04-10T01:00:33.040Z,99.90
2023-04-10T01:03:01.819Z,99.90
2023-04-10T01:05:38.553Z,99.90
2023-04-10T01:08:16.982Z,99.90
2023-04-10T01:10:54.383Z,99.90
2023-04-10T01:13:27.033Z,99.90
2023-04-10T01:16:04.066Z,99.90
2023-04-10T01:18:40.530Z,99.90
2023-04-10T01:21:13.292Z,99.90
2023-04-10T01:24:10.742Z,99.90
2023-04-10T01:27:01.641Z,99.90
2023-04-10T01:29:34.222Z,99.90
2023-04-10T01:32:09.224Z,99.90
2023-04-10T01:34:44.393Z,99.90
2023-04-10T01:37:18.518Z,99.90
2023-04-10T01:40:00.493Z,99.90
2023-04-10T01:42:31.814Z,99.90
2023-04-10T01:45:03.480Z,99.90
2023-04-10T01:47:32.796Z,99.90
2023-04-10T01:50:03.094Z,99.90
2023-04-10T01:52:32.950Z,99.90
2023-04-10T01:55:04.618Z,99.90
2023-04-10T01:57:36.195Z,99.90
2023-04-10T02:00:07.663Z,99.90
2023-04-10T02:02:36.682Z,99.90
2023-04-10T02:05:05.990Z,99.90
2023-04-10T02:07:46.684Z,99.90
2023-04-10T02:10:22.566Z,99.90
2023-04-10T02:12:56.758Z,99.90
2023-04-10T02:15:29.655Z,99.90
2023-04-10T02:18:00.375Z,99.90
2023-04-10T02:20:29.084Z,99.90
2023-04-10T02:22:59.960Z,99.90
2023-04-10T02:25:28.500Z,99.90
2023-04-10T02:27:57.129Z,99.90
2023-04-10T02:30:27.213Z,99.90
2023-04-10T02:32:56.110Z,99.90
2023-04-10T02:35:24.643Z,99.90
2023-04-10T02:37:53.180Z,99.90
2023-04-10T02:40:22.477Z,99.90
2023-04-10T02:42:51.183Z,99.90
2023-04-10T02:45:20.053Z,99.90
2023-04-10T02:47:50.369Z,99.90
2023-04-10T02:50:19.101Z,99.90
2023-04-10T02:52:47.580Z,99.90
2023-04-10T02:55:16.065Z,99.90
2023-04-10T02:57:44.543Z,99.90
2023-04-10T03:00:14.573Z,99.90
2023-04-10T03:02:43.145Z,99.90
2023-04-10T03:05:13.462Z,99.90
2023-04-10T03:07:42.241Z,99.90
2023-04-10T03:10:11.526Z,99.90
2023-04-10T03:12:40.018Z,99.90
2023-04-10T03:15:09.920Z,99.90
2023-04-10T03:17:38.398Z,99.90
2023-04-10T03:20:08.586Z,99.90
2023-04-10T03:22:38.410Z,99.90
2023-04-10T03:25:08.187Z,99.90
2023-04-10T03:27:39.658Z,99.90
2023-04-10T03:30:10.201Z,99.90
2023-04-10T03:32:39.144Z,99.90
2023-04-10T03:35:08.623Z,99.90
2023-04-10T03:37:38.473Z,99.90
2023-04-10T03:40:10.167Z,99.90
2023-04-10T03:42:39.026Z,99.90
2023-04-10T03:45:08.749Z,99.90
2023-04-10T03:47:37.261Z,99.90
2023-04-10T03:50:06.923Z,99.90
2023-04-10T03:52:35.623Z,99.90
2023-04-10T03:55:06.229Z,99.90
2023-04-10T03:57:34.704Z,99.90
2023-04-10T04:00:04.099Z,99.90
2023-04-10T04:02:32.748Z,99.90
2023-04-10T04:05:01.551Z,99.90
2023-04-10T04:07:30.088Z,99.90
2023-04-10T04:09:58.788Z,99.90
2023-04-10T04:12:28.742Z,99.90
2023-04-10T04:14:57.168Z,99.90
2023-04-10T04:17:25.716Z,99.90
2023-04-10T04:19:54.246Z,99.90
2023-04-10T04:22:23.240Z,99.90
2023-04-10T04:24:52.671Z,99.90
2023-04-10T04:27:21.891Z,99.90
2023-04-10T04:29:51.923Z,99.90
2023-04-10T04:32:20.834Z,99.90
2023-04-10T04:34:49.338Z,99.90
2023-04-10T04:37:17.779Z,99.90
2023-04-10T04:39:46.248Z,99.90
2023-04-10T04:42:14.788Z,99.90
2023-04-10T04:44:44.200Z,99.90
2023-04-10T04:47:14.008Z,99.90
2023-04-10T04:49:42.472Z,99.90
2023-04-10T04:52:10.960Z,99.90
2023-04-10T04:54:39.382Z,99.90
2023-04-10T04:57:08.859Z,99.90
2023-04-10T04:59:38.361Z,99.90
2023-04-10T05:02:07.225Z,99.90
2023-04-10T05:04:37.093Z,99.90
2023-04-10T05:07:05.993Z,99.90
2023-04-10T05:09:34.487Z,99.90
2023-04-10T05:12:04.153Z,99.90
2023-04-10T05:14:32.626Z,99.90
2023-04-10T05:17:03.366Z,99.90
2023-04-10T05:19:32.199Z,99.90
2023-04-10T05:22:02.234Z,99.90
2023-04-10T05:24:30.739Z,99.90
2023-04-10T05:26:59.228Z,99.90
2023-04-10T05:29:27.780Z,99.90
2023-04-10T05:31:56.301Z,99.90
2023-04-10T05:34:24.789Z,99.90
2023-04-10T05:36:53.618Z,99.90
2023-04-10T05:39:23.452Z,99.90
2023-04-10T05:41:51.896Z,99.90
2023-04-10T05:44:20.346Z,99.90
2023-04-10T05:46:48.894Z,99.90
2023-04-10T05:49:17.974Z,99.90
2023-04-10T05:51:50.268Z,99.90
2023-04-10T05:54:18.923Z,99.90
2023-04-10T05:56:48.783Z,99.90
2023-04-10T05:59:17.270Z,99.90
2023-04-10T06:01:47.050Z,99.90
2023-04-10T06:04:15.885Z,99.90
2023-04-10T06:06:44.432Z,99.90
2023-04-10T06:09:12.878Z,99.90
2023-04-10T06:11:41.512Z,99.90
2023-04-10T06:14:11.333Z,99.90
2023-04-10T06:16:39.888Z,99.90
2023-04-10T06:19:08.370Z,99.90
2023-04-10T06:21:37.177Z,99.90
2023-04-10T06:24:06.509Z,99.90
2023-04-10T06:26:35.040Z,99.90
2023-04-10T06:29:03.948Z,99.90
2023-04-10T06:31:36.004Z,99.90
2023-04-10T06:34:04.514Z,99.90
2023-04-10T06:36:33.069Z,99.90
2023-04-10T06:39:02.763Z,99.90
2023-04-10T06:41:31.230Z,99.90
2023-04-10T06:44:01.167Z,99.90
2023-04-10T06:46:31.821Z,99.90
2023-04-10T06:49:01.987Z,99.90
2023-04-10T06:51:31.543Z,99.90
2023-04-10T06:54:00.059Z,99.90
2023-04-10T06:56:28.697Z,99.90
2023-04-10T06:58:57.812Z,99.90
2023-04-10T07:01:26.600Z,99.90
2023-04-10T07:03:56.050Z,99.90
2023-04-10T07:06:26.635Z,99.90
2023-04-10T07:08:55.235Z,99.90
2023-04-10T07:11:23.976Z,99.90
2023-04-10T07:13:53.961Z,99.90
2023-04-10T07:16:22.562Z,99.90
2023-04-10T07:18:51.064Z,99.90
2023-04-10T07:21:19.534Z,99.90
2023-04-10T07:23:49.383Z,99.90
2023-04-10T07:26:17.872Z,99.90
2023-04-10T07:28:46.619Z,99.90
2023-04-10T07:31:15.179Z,99.90
2023-04-10T07:33:43.984Z,99.90
2023-04-10T07:36:12.539Z,99.90
2023-04-10T07:38:41.113Z,99.90
2023-04-10T07:41:12.261Z,99.90
2023-04-10T07:43:41.651Z,99.90
2023-04-10T07:46:10.171Z,99.90
2023-04-10T07:48:38.671Z,99.90
2023-04-10T07:51:09.595Z,99.90
2023-04-10T07:53:38.681Z,99.90
2023-04-10T07:56:08.761Z,99.90
2023-04-10T07:58:39.878Z,99.90
2023-04-10T08:01:08.659Z,99.90
2023-04-10T08:03:41.058Z,99.90
2023-04-10T08:06:10.378Z,99.90
2023-04-10T08:08:39.626Z,99.90
2023-04-10T08:11:24.913Z,99.90
2023-04-10T08:13:56.158Z,99.90
2023-04-10T08:16:26.241Z,99.90
2023-04-10T08:18:56.801Z,99.90
2023-04-10T08:21:27.500Z,99.90
2023-04-10T08:23:57.463Z,99.90
2023-04-10T08:26:27.802Z,99.90
2023-04-10T08:28:59.937Z,99.90
2023-04-10T08:31:30.205Z,99.90
2023-04-10T08:33:59.491Z,92.90
2023-04-10T08:36:28.644Z,92.50
2023-04-10T08:38:57.361Z,84.90
2023-04-10T08:41:26.634Z,83.40
2023-04-10T08:43:55.510Z,88.00
2023-04-10T08:46:26.621Z,69.50
2023-04-10T08:49:01.056Z,81.90
2023-04-10T08:51:35.638Z,76.00
2023-04-10T08:54:09.081Z,74.30
2023-04-10T08:56:39.440Z,68.10
2023-04-10T08:59:10.020Z,69.20
2023-04-10T09:01:44.958Z,71.10
2023-04-10T09:04:14.115Z,64.30
2023-04-10T09:06:42.698Z,60.50
2023-04-10T09:09:11.662Z,64.70
2023-04-10T09:12:00.850Z,63.20
2023-04-10T09:14:32.112Z,60.00
2023-04-10T09:17:19.833Z,66.80
2023-04-10T09:19:50.821Z,59.50
2023-04-10T09:22:19.757Z,59.10
2023-04-10T09:24:49.327Z,60.00
2023-04-10T09:27:32.488Z,61.60
2023-04-10T09:30:02.111Z,55.00
2023-04-10T09:32:44.640Z,57.70
2023-04-10T09:35:15.266Z,54.80
2023-04-10T09:37:46.872Z,55.70
2023-04-10T09:40:26.627Z,54.80
2023-04-10T09:42:56.959Z,54.60
2023-04-10T09:45:25.896Z,53.50
2023-04-10T09:48:07.059Z,54.60
2023-04-10T09:50:40.996Z,51.80
2023-04-10T09:53:10.497Z,54.20
2023-04-10T09:55:39.680Z,55.10
2023-04-10T09:58:09.627Z,51.30
2023-04-10T10:00:42.236Z,52.40
2023-04-10T10:03:14.290Z,53.90
2023-04-10T10:05:45.760Z,50.50
2023-04-10T10:08:15.999Z,50.70
2023-04-10T10:10:49.095Z,53.30
2023-04-10T10:13:26.498Z,49.50
2023-04-10T10:16:04.915Z,53.00
2023-04-10T10:18:46.080Z,51.70
2023-04-10T10:21:15.870Z,52.70
2023-04-10T10:23:44.900Z,50.00
2023-04-10T10:26:14.637Z,49.60
2023-04-10T10:28:44.168Z,51.30
2023-04-10T10:31:13.375Z,50.40
2023-04-10T10:33:43.896Z,53.00
2023-04-10T10:36:14.097Z,49.80
2023-04-10T10:38:52.534Z,50.60
2023-04-10T10:41:31.194Z,50.50
2023-04-10T10:44:10.422Z,47.10
2023-04-10T10:46:44.736Z,49.10
2023-04-10T10:49:14.604Z,50.90
2023-04-10T10:51:47.927Z,50.40
2023-04-10T10:54:42.235Z,50.80
2023-04-10T10:57:49.209Z,46.30
2023-04-10T11:00:18.246Z,42.60
2023-04-10T11:02:47.057Z,44.10
2023-04-10T11:05:52.576Z,44.50
2023-04-10T11:08:47.285Z,44.80
2023-04-10T11:11:20.192Z,47.10
2023-04-10T11:14:19.167Z,44.10
2023-04-10T11:16:49.225Z,47.20
2023-04-10T11:19:23.950Z,46.20
2023-04-10T11:22:10.697Z,43.30
2023-04-10T11:25:02.825Z,42.50
2023-04-10T11:27:45.118Z,40.80
2023-04-10T11:30:37.126Z,40.60
2023-04-10T11:33:06.728Z,40.90
2023-04-10T11:35:35.664Z,40.20
2023-04-10T11:38:14.544Z,41.80
2023-04-10T11:41:01.715Z,43.40
2023-04-10T11:43:30.700Z,44.10
2023-04-10T11:46:08.095Z,42.80
2023-04-10T11:48:38.045Z,45.80
2023-04-10T11:51:11.347Z,41.20
2023-04-10T11:53:42.481Z,42.00
2023-04-10T11:56:22.610Z,39.50
2023-04-10T11:58:54.966Z,42.90
2023-04-10T12:01:24.465Z,44.40
2023-04-10T12:03:53.305Z,43.20
2023-04-10T12:06:22.335Z,44.00
2023-04-10T12:08:52.757Z,43.70
2023-04-10T12:11:23.649Z,41.30
2023-04-10T12:13:55.501Z,44.80
2023-04-10T12:16:27.615Z,45.10
2023-04-10T12:18:57.228Z,42.20
2023-04-10T12:21:26.383Z,45.00
2023-04-10T12:23:56.241Z,42.90
2023-04-10T12:26:25.646Z,44.40
2023-04-10T12:28:57.508Z,43.70
2023-04-10T12:31:30.583Z,45.20
2023-04-10T12:33:59.594Z,48.70
2023-04-10T12:36:33.592Z,45.60
2023-04-10T12:39:04.995Z,46.50
2023-04-10T12:41:35.390Z,45.60
2023-04-10T12:44:12.201Z,47.90
2023-04-10T12:46:41.747Z,48.00
2023-04-10T12:49:12.500Z,49.20
2023-04-10T12:51:46.368Z,45.80
2023-04-10T12:54:33.599Z,48.00
2023-04-10T12:57:04.082Z,47.90
2023-04-10T12:59:33.776Z,47.50
2023-04-10T13:02:02.701Z,49.00
2023-04-10T13:04:32.968Z,48.10
2023-04-10T13:07:01.849Z,48.60
2023-04-10T13:09:31.931Z,48.20
2023-04-10T13:12:01.947Z,49.80
2023-04-10T13:14:30.648Z,48.50
2023-04-10T13:16:59.642Z,48.50
2023-04-10T13:19:28.125Z,49.50
2023-04-10T13:21:56.888Z,51.10
2023-04-10T13:24:25.470Z,51.60
2023-04-10T13:26:57.266Z,49.40
2023-04-10T13:29:26.132Z,47.90
2023-04-10T13:31:54.734Z,50.90
2023-04-10T13:34:23.325Z,50.10
2023-04-10T13:36:51.802Z,53.00
2023-04-10T13:39:20.306Z,49.80
2023-04-10T13:41:48.784Z,52.20
2023-04-10T13:44:18.874Z,53.60
2023-04-10T13:46:47.481Z,52.60
2023-04-10T13:49:17.584Z,51.40
2023-04-10T13:51:46.678Z,50.50
2023-04-10T13:54:17.082Z,49.20
2023-04-10T13:56:46.630Z,51.60
2023-04-10T13:59:15.451Z,52.10
2023-04-10T14:01:45.553Z,52.50
2023-04-10T14:04:14.040Z,51.20
2023-04-10T14:06:42.505Z,51.70
2023-04-10T14:09:10.975Z,51.80
2023-04-10T14:11:39.431Z,52.00
2023-04-10T14:14:07.929Z,51.10
2023-04-10T14:16:36.639Z,52.20
2023-04-10T14:19:06.691Z,50.30
2023-04-10T14:24:24.950Z,51.90
2023-04-10T14:26:58.541Z,53.10
2023-04-10T14:29:36.319Z,50.10
2023-04-10T14:32:08.263Z,50.70
2023-04-10T14:34:38.179Z,49.70
2023-04-10T14:37:07.613Z,48.30
2023-04-10T14:39:36.869Z,47.80
2023-04-10T14:42:05.421Z,49.20
2023-04-10T14:44:33.915Z,49.20
2023-04-10T14:47:02.390Z,52.20
2023-04-10T14:49:31.093Z,50.80
2023-04-10T14:52:01.346Z,51.10
2023-04-10T14:54:29.959Z,52.70
2023-04-10T14:57:00.136Z,53.40
2023-04-10T14:59:28.640Z,53.90
2023-04-10T15:01:57.357Z,53.30
2023-04-10T15:04:25.891Z,53.10
2023-04-10T15:06:54.640Z,55.00
2023-04-10T15:09:24.504Z,56.00
2023-04-10T15:11:52.956Z,53.00
2023-04-10T15:14:21.410Z,54.70
2023-04-10T15:16:52.621Z,51.80
2023-04-10T15:19:22.417Z,53.60
2023-04-10T15:21:51.670Z,54.70
2023-04-10T15:24:20.146Z,50.50
2023-04-10T15:26:50.050Z,53.00
2023-04-10T15:29:18.573Z,52.10
2023-04-10T15:31:47.066Z,55.10
2023-04-10T15:34:15.535Z,53.60
2023-04-10T15:36:44.215Z,51.80
2023-04-10T15:39:12.709Z,50.70
2023-04-10T15:41:41.178Z,53.30
2023-04-10T15:44:11.067Z,52.30
2023-04-10T15:46:39.605Z,50.70
2023-04-10T15:49:08.139Z,51.10
2023-04-10T15:51:36.670Z,51.50
2023-04-10T15:54:05.389Z,51.70
2023-04-10T15:56:34.530Z,51.60
2023-04-10T15:59:03.044Z,51.00
2023-04-10T16:01:33.019Z,49.70
2023-04-10T16:04:01.668Z,51.20
2023-04-10T16:06:30.235Z,51.40
2023-04-10T16:08:58.931Z,51.50
2023-04-10T16:11:27.439Z,56.30
2023-04-10T16:13:56.133Z,54.80
2023-04-10T16:16:25.848Z,51.50
2023-04-10T16:18:56.687Z,51.80
2023-04-10T16:21:25.414Z,65.30
2023-04-10T16:23:54.104Z,73.20
2023-04-10T16:26:22.652Z,73.90
2023-04-10T16:28:51.276Z,60.30
2023-04-10T16:31:19.837Z,56.10
2023-04-10T16:33:48.360Z,56.30
2023-04-10T16:36:18.410Z,61.50
2023-04-10T16:38:49.858Z,70.20
2023-04-10T16:41:20.584Z,58.30
2023-04-10T16:43:49.537Z,54.50
2023-04-10T16:46:18.196Z,52.30
2023-04-10T16:48:46.781Z,52.90
2023-04-10T16:51:18.917Z,52.10
2023-04-10T16:53:48.131Z,50.60
2023-04-10T16:56:17.947Z,51.40
2023-04-10T16:58:47.646Z,51.10
2023-04-10T17:01:18.321Z,51.20
2023-04-10T17:03:47.614Z,54.00
2023-04-10T17:06:17.752Z,54.20
2023-04-10T17:08:46.804Z,61.00
2023-04-10T17:11:16.046Z,72.00
2023-04-10T17:13:44.713Z,83.20
2023-04-10T17:16:13.204Z,91.70
2023-04-10T17:18:42.324Z,96.30
2023-04-10T17:21:13.234Z,97.40
2023-04-10T17:23:43.884Z,97.50
2023-04-10T17:26:15.921Z,99.90
2023-04-10T17:28:46.680Z,99.90
2023-04-10T17:31:16.418Z,99.60
2023-04-10T17:33:45.277Z,99.90
2023-04-10T17:36:14.934Z,99.90
2023-04-10T17:38:44.806Z,99.90
2023-04-10T17:41:16.627Z,99.90
2023-04-10T17:43:45.080Z,99.90
2023-04-10T17:46:15.449Z,99.90
2023-04-10T17:48:44.834Z,99.90
2023-04-10T17:51:13.548Z,99.90
2023-04-10T17:53:42.120Z,99.90
2023-04-10T17:56:19.775Z,99.90
2023-04-10T17:58:48.455Z,99.90
2023-04-10T18:01:23.847Z,99.90
2023-04-10T18:03:52.500Z,99.90
2023-04-10T18:06:21.067Z,99.90
2023-04-10T18:08:49.581Z,99.90
2023-04-10T18:11:19.466Z,99.90
2023-04-10T18:13:48.557Z,99.90
2023-04-10T18:16:17.600Z,99.90
2023-04-10T18:18:46.181Z,99.90
2023-04-10T18:21:14.738Z,99.90
2023-04-10T18:23:44.638Z,99.90
2023-04-10T18:26:13.963Z,99.90
2023-04-10T18:28:45.466Z,99.90
2023-04-10T18:31:16.755Z,99.90
2023-04-10T18:33:45.652Z,99.90
2023-04-10T18:36:19.033Z,99.90
2023-04-10T18:38:47.863Z,99.90
2023-04-10T18:41:16.554Z,99.90
2023-04-10T18:43:57.828Z,99.90
2023-04-10T18:46:33.653Z,99.90
2023-04-10T18:49:03.243Z,99.90
2023-04-10T18:51:34.974Z,99.90
2023-04-10T18:54:03.988Z,99.90
2023-04-10T18:56:35.771Z,99.90
2023-04-10T18:59:06.352Z,99.90
2023-04-10T19:01:35.122Z,99.90
2023-04-10T19:04:03.904Z,99.90
2023-04-10T19:06:32.979Z,99.90
2023-04-10T19:09:01.488Z,99.90
2023-04-10T19:11:30.087Z,99.90
2023-04-10T19:13:58.678Z,99.90
2023-04-10T19:16:28.579Z,99.90
2023-04-10T19:18:57.553Z,99.90
2023-04-10T19:21:27.848Z,97.80
2023-04-10T19:23:56.577Z,91.70
2023-04-10T19:26:25.127Z,92.70
2023-04-10T19:28:54.064Z,96.00
2023-04-10T19:31:23.951Z,95.00
2023-04-10T19:33:54.102Z,90.00
2023-04-10T19:36:22.620Z,91.10
2023-04-10T19:38:51.437Z,87.40
2023-04-10T19:41:19.916Z,83.70
2023-04-10T19:43:48.611Z,83.40
2023-04-10T19:46:18.443Z,82.30
2023-04-10T19:48:47.363Z,81.00
2023-04-10T19:51:17.225Z,77.10
2023-04-10T19:53:45.901Z,72.20
2023-04-10T19:56:14.344Z,71.50
2023-04-10T19:58:44.401Z,69.10
2023-04-10T20:01:14.100Z,68.50
2023-04-10T20:03:42.987Z,69.00
2023-04-10T20:06:11.724Z,70.80
2023-04-10T20:08:41.613Z,68.70
2023-04-10T20:11:10.068Z,68.20
2023-04-10T20:13:39.333Z,70.20
2023-04-10T20:16:09.040Z,68.50
2023-04-10T20:18:37.944Z,69.50
2023-04-10T20:21:08.006Z,69.50
2023-04-10T20:23:36.518Z,70.40
2023-04-10T20:26:06.823Z,72.90
2023-04-10T20:28:35.466Z,72.70
2023-04-10T20:31:03.961Z,71.10
2023-04-10T20:33:32.692Z,72.30
2023-04-10T20:36:01.210Z,73.20
2023-04-10T20:38:29.944Z,73.90
2023-04-10T20:40:58.415Z,74.10
2023-04-10T20:43:28.690Z,76.90
2023-04-10T20:45:57.379Z,78.90
2023-04-10T20:48:26.068Z,83.30
2023-04-10T20:50:55.546Z,83.90
2023-04-10T20:53:24.189Z,85.10
2023-04-10T20:55:54.192Z,87.90
2023-04-10T20:58:23.071Z,87.70
2023-04-10T21:00:54.573Z,90.70
2023-04-10T21:03:23.310Z,92.20
2023-04-10T21:05:53.652Z,94.60
2023-04-10T21:08:22.638Z,97.20
2023-04-10T21:10:51.433Z,98.70
2023-04-10T21:13:19.936Z,98.70
2023-04-10T21:15:50.419Z,99.90
2023-04-10T21:18:20.325Z,99.90
2023-04-10T21:20:48.763Z,99.90
2023-04-10T21:23:17.205Z,99.90
2023-04-10T21:25:52.879Z,99.90
2023-04-10T21:28:21.537Z,99.90
2023-04-10T21:30:50.077Z,99.90
2023-04-10T21:33:19.933Z,99.90
2023-04-10T21:35:49.014Z,99.90
2023-04-10T21:38:17.521Z,99.90
2023-04-10T21:40:52.448Z,99.90
2023-04-10T21:43:21.115Z,99.90
2023-04-10T21:45:50.018Z,99.90
2023-04-10T21:48:20.766Z,99.90
2023-04-10T21:50:51.239Z,99.90
2023-04-10T21:53:20.320Z,99.90
2023-04-10T21:55:50.358Z,99.90
2023-04-10T21:58:18.859Z,99.90
2023-04-10T22:00:47.552Z,99.90
2023-04-10T22:03:17.285Z,99.90
2023-04-10T22:05:48.914Z,99.90
2023-04-10T22:08:18.338Z,99.90
2023-04-10T22:10:48.123Z,99.90
2023-04-10T22:13:29.596Z,99.90
2023-04-10T22:15:59.738Z,99.90
2023-04-10T22:18:28.232Z,99.90
2023-04-10T22:20:58.081Z,99.90
2023-04-10T22:23:26.597Z,99.90
2023-04-10T22:25:55.092Z,99.90
2023-04-10T22:28:24.032Z,99.90
2023-04-10T22:30:52.580Z,99.90
2023-04-10T22:33:21.113Z,99.90
2023-04-10T22:35:49.968Z,99.90
2023-04-10T22:38:19.868Z,99.90
2023-04-10T22:40:48.526Z,99.90
2023-04-10T22:43:17.032Z,99.90
2023-04-10T22:45:45.708Z,99.90
2023-04-10T22:48:14.184Z,99.50
2023-04-10T22:50:42.850Z,99.90
2023-04-10T22:53:12.619Z,98.50
2023-04-10T22:55:42.719Z,99.90
2023-04-10T22:58:11.913Z,99.90
2023-04-10T23:00:40.458Z,99.90
2023-04-10T23:03:09.061Z,98.80
2023-04-10T23:05:37.595Z,93.60
2023-04-10T23:08:06.111Z,97.90
2023-04-10T23:10:34.575Z,94.70
2023-04-10T23:13:04.447Z,94.40
2023-04-10T23:15:33.125Z,94.50
2023-04-10T23:18:01.783Z,94.80
2023-04-10T23:20:30.336Z,93.30
2023-04-10T23:22:59.057Z,94.40
2023-04-10T23:25:27.527Z,93.10
2023-04-10T23:27:56.061Z,98.00
2023-04-10T23:30:26.348Z,95.10
2023-04-10T23:32:54.860Z,97.20
2023-04-10T23:35:23.616Z,94.00
2023-04-10T23:37:52.277Z,93.20
2023-04-10T23:40:22.291Z,92.80
2023-04-10T23:42:50.742Z,91.00
2023-04-10T23:45:19.402Z,92.10
2023-04-10T23:47:50.763Z,92.10
2023-04-10T23:50:19.828Z,91.60
2023-04-10T23:52:50.684Z,92.60
2023-04-10T23:55:20.060Z,93.10
2023-04-10T23:57:48.728Z,90.70
